sensor_id;sensor_type;location;lat;lon;timestamp;P1;durP1;ratioP1;P2;durP2;ratioP2
62056;SDS011;48016;50.284;18.860;2023-02-28T00:00:34;32.30;;;16.00;;
62056;SDS011;48016;50.284;18.860;2023-02-28T00:03:14;34.00;;;14.30;;
62056;SDS011;48016;50.284;18.860;2023-02-28T00:05:41;28.50;;;12.80;;
62056;SDS011;48016;50.284;18.860;2023-02-28T00:08:08;29.90;;;12.40;;
62056;SDS011;48016;50.284;18.860;2023-02-28T00:10:35;24.90;;;12.00;;
62056;SDS011;48016;50.284;18.860;2023-02-28T00:13:03;27.50;;;12.60;;
62056;SDS011;48016;50.284;18.860;2023-02-28T00:15:31;27.80;;;12.00;;
62056;SDS011;48016;50.284;18.860;2023-02-28T00:17:58;27.70;;;11.90;;
62056;SDS011;48016;50.284;18.860;2023-02-28T00:20:25;25.00;;;12.60;;
62056;SDS011;48016;50.284;18.860;2023-02-28T00:22:53;25.80;;;12.00;;
62056;SDS011;48016;50.284;18.860;2023-02-28T00:25:22;31.60;;;14.20;;
62056;SDS011;48016;50.284;18.860;2023-02-28T00:27:50;32.00;;;14.30;;
62056;SDS011;48016;50.284;18.860;2023-02-28T00:32:46;30.50;;;13.80;;
62056;SDS011;48016;50.284;18.860;2023-02-28T00:35:12;32.70;;;14.50;;
62056;SDS011;48016;50.284;18.860;2023-02-28T00:37:39;34.50;;;13.80;;
62056;SDS011;48016;50.284;18.860;2023-02-28T00:40:06;27.30;;;12.20;;
62056;SDS011;48016;50.284;18.860;2023-02-28T00:42:35;25.20;;;11.30;;
62056;SDS011;48016;50.284;18.860;2023-02-28T00:45:02;28.20;;;12.60;;
62056;SDS011;48016;50.284;18.860;2023-02-28T00:47:31;26.50;;;12.20;;
62056;SDS011;48016;50.284;18.860;2023-02-28T00:49:57;22.30;;;10.40;;
62056;SDS011;48016;50.284;18.860;2023-02-28T00:52:24;24.70;;;10.70;;
62056;SDS011;48016;50.284;18.860;2023-02-28T00:54:51;21.90;;;9.70;;
62056;SDS011;48016;50.284;18.860;2023-02-28T00:57:17;22.20;;;11.10;;
62056;SDS011;48016;50.284;18.860;2023-02-28T00:59:44;26.00;;;12.10;;
62056;SDS011;48016;50.284;18.860;2023-02-28T01:02:10;27.00;;;11.60;;
62056;SDS011;48016;50.284;18.860;2023-02-28T01:04:37;28.30;;;13.70;;
62056;SDS011;48016;50.284;18.860;2023-02-28T01:07:04;27.20;;;13.50;;
62056;SDS011;48016;50.284;18.860;2023-02-28T01:09:30;27.10;;;13.60;;
62056;SDS011;48016;50.284;18.860;2023-02-28T01:11:57;33.70;;;14.20;;
62056;SDS011;48016;50.284;18.860;2023-02-28T01:14:24;29.50;;;13.50;;
62056;SDS011;48016;50.284;18.860;2023-02-28T01:16:50;27.40;;;12.40;;
62056;SDS011;48016;50.284;18.860;2023-02-28T01:19:17;24.70;;;10.40;;
62056;SDS011;48016;50.284;18.860;2023-02-28T01:21:44;26.10;;;10.90;;
62056;SDS011;48016;50.284;18.860;2023-02-28T01:24:11;26.90;;;11.20;;
62056;SDS011;48016;50.284;18.860;2023-02-28T01:26:37;18.90;;;9.80;;
62056;SDS011;48016;50.284;18.860;2023-02-28T01:29:04;24.10;;;10.40;;
62056;SDS011;48016;50.284;18.860;2023-02-28T01:31:31;21.80;;;9.90;;
62056;SDS011;48016;50.284;18.860;2023-02-28T01:33:57;20.20;;;9.30;;
62056;SDS011;48016;50.284;18.860;2023-02-28T01:36:24;23.20;;;10.30;;
62056;SDS011;48016;50.284;18.860;2023-02-28T01:38:52;22.00;;;9.90;;
62056;SDS011;48016;50.284;18.860;2023-02-28T01:41:20;27.60;;;11.20;;
62056;SDS011;48016;50.284;18.860;2023-02-28T01:46:14;19.40;;;8.70;;
62056;SDS011;48016;50.284;18.860;2023-02-28T01:48:42;26.80;;;11.80;;
62056;SDS011;48016;50.284;18.860;2023-02-28T01:51:13;24.50;;;12.30;;
62056;SDS011;48016;50.284;18.860;2023-02-28T01:53:44;21.70;;;10.20;;
62056;SDS011;48016;50.284;18.860;2023-02-28T01:56:18;25.80;;;12.80;;
62056;SDS011;48016;50.284;18.860;2023-02-28T01:58:52;23.60;;;10.50;;
62056;SDS011;48016;50.284;18.860;2023-02-28T02:01:20;22.80;;;11.10;;
62056;SDS011;48016;50.284;18.860;2023-02-28T02:03:49;25.50;;;10.30;;
62056;SDS011;48016;50.284;18.860;2023-02-28T02:06:33;30.70;;;13.00;;
62056;SDS011;48016;50.284;18.860;2023-02-28T02:09:03;25.40;;;12.70;;
62056;SDS011;48016;50.284;18.860;2023-02-28T02:11:30;28.40;;;12.50;;
62056;SDS011;48016;50.284;18.860;2023-02-28T02:36:51;28.80;;;13.80;;
62056;SDS011;48016;50.284;18.860;2023-02-28T02:42:25;29.60;;;14.80;;
62056;SDS011;48016;50.284;18.860;2023-02-28T02:45:45;32.60;;;15.50;;
62056;SDS011;48016;50.284;18.860;2023-02-28T02:48:02;27.40;;;12.30;;
62056;SDS011;48016;50.284;18.860;2023-02-28T02:50:37;31.70;;;13.90;;
62056;SDS011;48016;50.284;18.860;2023-02-28T02:53:08;27.20;;;13.20;;
62056;SDS011;48016;50.284;18.860;2023-02-28T02:55:38;28.20;;;13.70;;
62056;SDS011;48016;50.284;18.860;2023-02-28T02:58:15;28.60;;;15.10;;
62056;SDS011;48016;50.284;18.860;2023-02-28T03:00:46;30.90;;;15.70;;
62056;SDS011;48016;50.284;18.860;2023-02-28T03:03:17;26.30;;;13.20;;
62056;SDS011;48016;50.284;18.860;2023-02-28T03:05:47;27.40;;;14.60;;
62056;SDS011;48016;50.284;18.860;2023-02-28T03:08:15;24.40;;;12.60;;
62056;SDS011;48016;50.284;18.860;2023-02-28T03:10:44;24.20;;;11.50;;
62056;SDS011;48016;50.284;18.860;2023-02-28T03:13:19;27.90;;;12.40;;
62056;SDS011;48016;50.284;18.860;2023-02-28T03:24:10;21.90;;;11.90;;
62056;SDS011;48016;50.284;18.860;2023-02-28T03:26:52;20.50;;;12.40;;
62056;SDS011;48016;50.284;18.860;2023-02-28T03:32:05;23.30;;;12.10;;
62056;SDS011;48016;50.284;18.860;2023-02-28T03:34:42;23.70;;;12.40;;
62056;SDS011;48016;50.284;18.860;2023-02-28T03:37:16;19.70;;;11.20;;
62056;SDS011;48016;50.284;18.860;2023-02-28T03:39:47;25.70;;;12.50;;
62056;SDS011;48016;50.284;18.860;2023-02-28T03:42:20;27.80;;;15.00;;
62056;SDS011;48016;50.284;18.860;2023-02-28T03:45:00;26.60;;;12.90;;
62056;SDS011;48016;50.284;18.860;2023-02-28T03:47:36;26.70;;;13.70;;
62056;SDS011;48016;50.284;18.860;2023-02-28T03:50:20;27.30;;;14.50;;
62056;SDS011;48016;50.284;18.860;2023-02-28T03:52:53;32.70;;;14.20;;
62056;SDS011;48016;50.284;18.860;2023-02-28T03:55:28;30.50;;;16.00;;
62056;SDS011;48016;50.284;18.860;2023-02-28T04:00:40;29.00;;;13.20;;
62056;SDS011;48016;50.284;18.860;2023-02-28T04:03:11;22.00;;;11.90;;
62056;SDS011;48016;50.284;18.860;2023-02-28T04:05:51;23.40;;;11.10;;
62056;SDS011;48016;50.284;18.860;2023-02-28T04:08:20;24.40;;;11.20;;
62056;SDS011;48016;50.284;18.860;2023-02-28T04:10:51;20.00;;;11.50;;
62056;SDS011;48016;50.284;18.860;2023-02-28T04:13:21;21.20;;;12.50;;
62056;SDS011;48016;50.284;18.860;2023-02-28T04:15:48;24.00;;;13.30;;
62056;SDS011;48016;50.284;18.860;2023-02-28T04:18:15;25.40;;;13.90;;
62056;SDS011;48016;50.284;18.860;2023-02-28T04:20:41;23.30;;;13.70;;
62056;SDS011;48016;50.284;18.860;2023-02-28T04:23:08;27.20;;;14.70;;
62056;SDS011;48016;50.284;18.860;2023-02-28T04:25:34;26.30;;;14.60;;
62056;SDS011;48016;50.284;18.860;2023-02-28T04:28:01;31.60;;;14.50;;
62056;SDS011;48016;50.284;18.860;2023-02-28T04:30:28;25.30;;;13.10;;
62056;SDS011;48016;50.284;18.860;2023-02-28T04:35:22;27.70;;;15.40;;
62056;SDS011;48016;50.284;18.860;2023-02-28T04:37:48;34.40;;;20.20;;
62056;SDS011;48016;50.284;18.860;2023-02-28T04:40:15;31.40;;;16.30;;
62056;SDS011;48016;50.284;18.860;2023-02-28T04:42:42;30.40;;;15.10;;
62056;SDS011;48016;50.284;18.860;2023-02-28T04:45:09;29.30;;;14.50;;
62056;SDS011;48016;50.284;18.860;2023-02-28T04:47:36;26.70;;;15.10;;
62056;SDS011;48016;50.284;18.860;2023-02-28T04:50:03;25.60;;;13.90;;
62056;SDS011;48016;50.284;18.860;2023-02-28T04:52:30;25.50;;;14.10;;
62056;SDS011;48016;50.284;18.860;2023-02-28T04:54:56;27.00;;;13.00;;
62056;SDS011;48016;50.284;18.860;2023-02-28T04:57:23;29.50;;;14.50;;
62056;SDS011;48016;50.284;18.860;2023-02-28T04:59:50;24.80;;;13.80;;
62056;SDS011;48016;50.284;18.860;2023-02-28T05:02:16;25.50;;;13.20;;
62056;SDS011;48016;50.284;18.860;2023-02-28T05:04:43;23.90;;;11.30;;
62056;SDS011;48016;50.284;18.860;2023-02-28T05:07:09;26.20;;;13.10;;
62056;SDS011;48016;50.284;18.860;2023-02-28T05:09:36;28.40;;;14.10;;
62056;SDS011;48016;50.284;18.860;2023-02-28T05:12:03;28.50;;;14.30;;
62056;SDS011;48016;50.284;18.860;2023-02-28T05:14:29;33.80;;;14.40;;
62056;SDS011;48016;50.284;18.860;2023-02-28T05:16:56;30.40;;;14.60;;
62056;SDS011;48016;50.284;18.860;2023-02-28T05:19:22;24.20;;;13.40;;
62056;SDS011;48016;50.284;18.860;2023-02-28T05:21:53;27.90;;;13.60;;
62056;SDS011;48016;50.284;18.860;2023-02-28T05:24:20;25.30;;;14.40;;
62056;SDS011;48016;50.284;18.860;2023-02-28T05:26:51;31.50;;;14.40;;
62056;SDS011;48016;50.284;18.860;2023-02-28T05:29:19;28.20;;;14.90;;
62056;SDS011;48016;50.284;18.860;2023-02-28T05:31:46;32.20;;;17.10;;
62056;SDS011;48016;50.284;18.860;2023-02-28T05:34:13;29.60;;;15.70;;
62056;SDS011;48016;50.284;18.860;2023-02-28T05:36:41;36.40;;;16.70;;
62056;SDS011;48016;50.284;18.860;2023-02-28T05:39:09;39.00;;;19.40;;
62056;SDS011;48016;50.284;18.860;2023-02-28T05:41:39;34.70;;;17.40;;
62056;SDS011;48016;50.284;18.860;2023-02-28T05:44:07;32.20;;;16.60;;
62056;SDS011;48016;50.284;18.860;2023-02-28T05:46:34;39.30;;;18.40;;
62056;SDS011;48016;50.284;18.860;2023-02-28T05:49:01;37.80;;;16.30;;
62056;SDS011;48016;50.284;18.860;2023-02-28T05:51:27;42.30;;;18.60;;
62056;SDS011;48016;50.284;18.860;2023-02-28T05:53:54;46.50;;;20.30;;
62056;SDS011;48016;50.284;18.860;2023-02-28T05:56:25;36.10;;;17.50;;
62056;SDS011;48016;50.284;18.860;2023-02-28T05:58:51;41.70;;;18.50;;
62056;SDS011;48016;50.284;18.860;2023-02-28T06:01:19;38.60;;;19.70;;
62056;SDS011;48016;50.284;18.860;2023-02-28T06:03:48;38.20;;;19.40;;
62056;SDS011;48016;50.284;18.860;2023-02-28T06:06:15;38.40;;;17.60;;
62056;SDS011;48016;50.284;18.860;2023-02-28T06:08:42;27.60;;;13.00;;
62056;SDS011;48016;50.284;18.860;2023-02-28T06:11:10;36.70;;;19.80;;
62056;SDS011;48016;50.284;18.860;2023-02-28T06:13:38;33.70;;;16.20;;
62056;SDS011;48016;50.284;18.860;2023-02-28T06:16:05;35.30;;;18.00;;
62056;SDS011;48016;50.284;18.860;2023-02-28T06:18:31;29.70;;;15.00;;
62056;SDS011;48016;50.284;18.860;2023-02-28T06:20:58;39.10;;;19.10;;
62056;SDS011;48016;50.284;18.860;2023-02-28T06:23:25;36.20;;;17.20;;
62056;SDS011;48016;50.284;18.860;2023-02-28T06:25:51;31.60;;;15.00;;
62056;SDS011;48016;50.284;18.860;2023-02-28T06:28:19;34.00;;;16.00;;
62056;SDS011;48016;50.284;18.860;2023-02-28T06:30:46;32.80;;;17.00;;
62056;SDS011;48016;50.284;18.860;2023-02-28T06:33:12;36.00;;;16.90;;
62056;SDS011;48016;50.284;18.860;2023-02-28T06:35:39;30.90;;;15.60;;
62056;SDS011;48016;50.284;18.860;2023-02-28T06:38:05;33.60;;;15.50;;
62056;SDS011;48016;50.284;18.860;2023-02-28T06:40:32;37.40;;;19.50;;
62056;SDS011;48016;50.284;18.860;2023-02-28T06:43:01;37.50;;;17.90;;
62056;SDS011;48016;50.284;18.860;2023-02-28T06:45:28;35.90;;;16.90;;
62056;SDS011;48016;50.284;18.860;2023-02-28T06:47:55;32.90;;;17.00;;
62056;SDS011;48016;50.284;18.860;2023-02-28T06:50:21;38.50;;;16.30;;
62056;SDS011;48016;50.284;18.860;2023-02-28T06:52:48;30.30;;;14.60;;
62056;SDS011;48016;50.284;18.860;2023-02-28T06:55:19;34.60;;;15.90;;
62056;SDS011;48016;50.284;18.860;2023-02-28T06:57:46;34.30;;;16.10;;
62056;SDS011;48016;50.284;18.860;2023-02-28T07:00:13;29.60;;;15.10;;
62056;SDS011;48016;50.284;18.860;2023-02-28T07:02:40;22.00;;;12.00;;
62056;SDS011;48016;50.284;18.860;2023-02-28T07:05:07;29.20;;;14.40;;
62056;SDS011;48016;50.284;18.860;2023-02-28T07:07:34;29.20;;;14.70;;
62056;SDS011;48016;50.284;18.860;2023-02-28T07:10:02;26.20;;;13.00;;
62056;SDS011;48016;50.284;18.860;2023-02-28T07:12:29;29.90;;;14.70;;
62056;SDS011;48016;50.284;18.860;2023-02-28T07:14:55;25.70;;;13.20;;
62056;SDS011;48016;50.284;18.860;2023-02-28T07:17:22;29.70;;;15.20;;
62056;SDS011;48016;50.284;18.860;2023-02-28T07:19:49;34.00;;;15.40;;
62056;SDS011;48016;50.284;18.860;2023-02-28T07:22:16;26.60;;;13.70;;
62056;SDS011;48016;50.284;18.860;2023-02-28T07:24:43;28.90;;;14.40;;
62056;SDS011;48016;50.284;18.860;2023-02-28T07:27:09;26.90;;;14.20;;
62056;SDS011;48016;50.284;18.860;2023-02-28T07:29:36;31.20;;;14.50;;
62056;SDS011;48016;50.284;18.860;2023-02-28T07:32:04;26.80;;;13.40;;
62056;SDS011;48016;50.284;18.860;2023-02-28T07:34:30;25.30;;;14.60;;
62056;SDS011;48016;50.284;18.860;2023-02-28T07:36:57;31.30;;;16.20;;
62056;SDS011;48016;50.284;18.860;2023-02-28T07:39:24;26.60;;;14.80;;
62056;SDS011;48016;50.284;18.860;2023-02-28T07:41:50;29.00;;;15.40;;
62056;SDS011;48016;50.284;18.860;2023-02-28T07:44:17;30.00;;;14.80;;
62056;SDS011;48016;50.284;18.860;2023-02-28T07:46:44;28.80;;;15.80;;
62056;SDS011;48016;50.284;18.860;2023-02-28T07:49:11;32.40;;;16.60;;
62056;SDS011;48016;50.284;18.860;2023-02-28T07:51:37;29.60;;;15.80;;
62056;SDS011;48016;50.284;18.860;2023-02-28T07:54:04;26.80;;;15.00;;
62056;SDS011;48016;50.284;18.860;2023-02-28T07:56:31;26.10;;;13.60;;
62056;SDS011;48016;50.284;18.860;2023-02-28T07:58:57;24.30;;;13.80;;
62056;SDS011;48016;50.284;18.860;2023-02-28T08:01:24;23.20;;;12.60;;
62056;SDS011;48016;50.284;18.860;2023-02-28T08:03:51;22.70;;;13.00;;
62056;SDS011;48016;50.284;18.860;2023-02-28T08:06:18;29.50;;;14.30;;
62056;SDS011;48016;50.284;18.860;2023-02-28T08:08:47;22.60;;;13.30;;
62056;SDS011;48016;50.284;18.860;2023-02-28T08:11:15;23.70;;;14.20;;
62056;SDS011;48016;50.284;18.860;2023-02-28T08:13:43;31.50;;;14.70;;
62056;SDS011;48016;50.284;18.860;2023-02-28T08:16:11;26.00;;;14.60;;
62056;SDS011;48016;50.284;18.860;2023-02-28T08:18:43;28.80;;;14.90;;
62056;SDS011;48016;50.284;18.860;2023-02-28T08:21:10;22.80;;;13.50;;
62056;SDS011;48016;50.284;18.860;2023-02-28T08:23:37;26.40;;;14.00;;
62056;SDS011;48016;50.284;18.860;2023-02-28T08:26:04;30.10;;;15.20;;
62056;SDS011;48016;50.284;18.860;2023-02-28T08:28:31;28.10;;;15.30;;
62056;SDS011;48016;50.284;18.860;2023-02-28T08:30:58;29.80;;;14.90;;
62056;SDS011;48016;50.284;18.860;2023-02-28T08:33:26;26.70;;;14.40;;
62056;SDS011;48016;50.284;18.860;2023-02-28T08:35:54;29.40;;;14.90;;
62056;SDS011;48016;50.284;18.860;2023-02-28T08:40:48;23.40;;;12.50;;
62056;SDS011;48016;50.284;18.860;2023-02-28T08:43:14;23.10;;;11.70;;
62056;SDS011;48016;50.284;18.860;2023-02-28T08:45:41;24.50;;;11.40;;
62056;SDS011;48016;50.284;18.860;2023-02-28T08:48:07;17.60;;;10.40;;
62056;SDS011;48016;50.284;18.860;2023-02-28T08:50:34;19.00;;;10.40;;
62056;SDS011;48016;50.284;18.860;2023-02-28T08:53:01;21.50;;;11.80;;
62056;SDS011;48016;50.284;18.860;2023-02-28T08:55:27;14.50;;;8.50;;
62056;SDS011;48016;50.284;18.860;2023-02-28T08:57:54;16.50;;;9.60;;
62056;SDS011;48016;50.284;18.860;2023-02-28T09:00:21;19.30;;;10.80;;
62056;SDS011;48016;50.284;18.860;2023-02-28T09:02:48;19.20;;;10.00;;
62056;SDS011;48016;50.284;18.860;2023-02-28T09:05:15;18.80;;;10.30;;
62056;SDS011;48016;50.284;18.860;2023-02-28T09:07:41;19.40;;;10.10;;
62056;SDS011;48016;50.284;18.860;2023-02-28T09:10:09;19.10;;;9.80;;
62056;SDS011;48016;50.284;18.860;2023-02-28T09:12:36;18.90;;;10.00;;
62056;SDS011;48016;50.284;18.860;2023-02-28T09:15:03;19.20;;;10.10;;
62056;SDS011;48016;50.284;18.860;2023-02-28T09:17:30;15.90;;;8.90;;
62056;SDS011;48016;50.284;18.860;2023-02-28T09:19:57;22.50;;;10.80;;
62056;SDS011;48016;50.284;18.860;2023-02-28T09:22:24;18.20;;;9.60;;
62056;SDS011;48016;50.284;18.860;2023-02-28T09:24:51;17.20;;;9.40;;
62056;SDS011;48016;50.284;18.860;2023-02-28T09:27:18;18.60;;;10.40;;
62056;SDS011;48016;50.284;18.860;2023-02-28T09:29:44;17.50;;;9.10;;
62056;SDS011;48016;50.284;18.860;2023-02-28T09:32:11;17.00;;;9.70;;
62056;SDS011;48016;50.284;18.860;2023-02-28T09:34:38;17.10;;;10.10;;
62056;SDS011;48016;50.284;18.860;2023-02-28T09:37:04;24.10;;;12.60;;
62056;SDS011;48016;50.284;18.860;2023-02-28T09:39:31;19.00;;;10.40;;
62056;SDS011;48016;50.284;18.860;2023-02-28T09:41:58;18.90;;;10.90;;
62056;SDS011;48016;50.284;18.860;2023-02-28T09:47:01;17.10;;;9.90;;
62056;SDS011;48016;50.284;18.860;2023-02-28T09:49:46;18.70;;;9.60;;
62056;SDS011;48016;50.284;18.860;2023-02-28T09:52:18;20.20;;;11.00;;
62056;SDS011;48016;50.284;18.860;2023-02-28T09:54:55;20.00;;;10.80;;
62056;SDS011;48016;50.284;18.860;2023-02-28T10:00:27;20.20;;;10.00;;
62056;SDS011;48016;50.284;18.860;2023-02-28T10:03:05;21.30;;;11.80;;
62056;SDS011;48016;50.284;18.860;2023-02-28T10:08:14;19.70;;;12.20;;
62056;SDS011;48016;50.284;18.860;2023-02-28T10:10:48;22.40;;;13.40;;
62056;SDS011;48016;50.284;18.860;2023-02-28T10:13:23;20.00;;;11.20;;
62056;SDS011;48016;50.284;18.860;2023-02-28T10:15:59;20.00;;;11.30;;
62056;SDS011;48016;50.284;18.860;2023-02-28T10:18:36;23.50;;;11.50;;
62056;SDS011;48016;50.284;18.860;2023-02-28T10:21:31;20.20;;;12.30;;
62056;SDS011;48016;50.284;18.860;2023-02-28T10:24:03;21.90;;;12.30;;
62056;SDS011;48016;50.284;18.860;2023-02-28T10:26:40;18.90;;;10.90;;
62056;SDS011;48016;50.284;18.860;2023-02-28T10:29:11;30.00;;;14.40;;
62056;SDS011;48016;50.284;18.860;2023-02-28T10:31:38;26.60;;;13.40;;
62056;SDS011;48016;50.284;18.860;2023-02-28T10:36:32;26.80;;;14.40;;
62056;SDS011;48016;50.284;18.860;2023-02-28T10:38:59;22.20;;;13.90;;
62056;SDS011;48016;50.284;18.860;2023-02-28T10:41:30;27.10;;;13.90;;
62056;SDS011;48016;50.284;18.860;2023-02-28T10:44:19;21.00;;;11.40;;
62056;SDS011;48016;50.284;18.860;2023-02-28T10:46:48;21.50;;;13.40;;
62056;SDS011;48016;50.284;18.860;2023-02-28T10:49:25;25.70;;;14.20;;
62056;SDS011;48016;50.284;18.860;2023-02-28T10:51:55;29.00;;;13.30;;
62056;SDS011;48016;50.284;18.860;2023-02-28T10:54:27;19.50;;;11.70;;
62056;SDS011;48016;50.284;18.860;2023-02-28T11:00:06;21.30;;;11.90;;
62056;SDS011;48016;50.284;18.860;2023-02-28T11:02:41;20.20;;;12.40;;
62056;SDS011;48016;50.284;18.860;2023-02-28T11:05:29;22.90;;;12.50;;
62056;SDS011;48016;50.284;18.860;2023-02-28T11:10:38;20.70;;;12.00;;
62056;SDS011;48016;50.284;18.860;2023-02-28T11:13:05;19.30;;;11.90;;
62056;SDS011;48016;50.284;18.860;2023-02-28T11:15:33;19.00;;;11.30;;
62056;SDS011;48016;50.284;18.860;2023-02-28T11:18:21;16.30;;;10.80;;
62056;SDS011;48016;50.284;18.860;2023-02-28T11:20:54;20.90;;;11.30;;
62056;SDS011;48016;50.284;18.860;2023-02-28T11:23:25;21.90;;;12.30;;
62056;SDS011;48016;50.284;18.860;2023-02-28T11:25:56;19.70;;;11.90;;
62056;SDS011;48016;50.284;18.860;2023-02-28T11:28:30;21.90;;;12.90;;
62056;SDS011;48016;50.284;18.860;2023-02-28T11:31:06;15.10;;;9.20;;
62056;SDS011;48016;50.284;18.860;2023-02-28T11:36:30;22.20;;;12.20;;
62056;SDS011;48016;50.284;18.860;2023-02-28T11:38:59;21.20;;;12.20;;
62056;SDS011;48016;50.284;18.860;2023-02-28T11:44:05;20.50;;;11.60;;
62056;SDS011;48016;50.284;18.860;2023-02-28T11:52:20;21.00;;;13.00;;
62056;SDS011;48016;50.284;18.860;2023-02-28T11:57:22;22.80;;;12.70;;
62056;SDS011;48016;50.284;18.860;2023-02-28T12:05:57;26.00;;;13.00;;
62056;SDS011;48016;50.284;18.860;2023-02-28T12:11:04;23.10;;;12.70;;
62056;SDS011;48016;50.284;18.860;2023-02-28T12:13:46;23.00;;;13.40;;
62056;SDS011;48016;50.284;18.860;2023-02-28T12:16:30;23.10;;;12.50;;
62056;SDS011;48016;50.284;18.860;2023-02-28T12:22:09;23.40;;;13.00;;
62056;SDS011;48016;50.284;18.860;2023-02-28T12:27:37;20.90;;;12.90;;
62056;SDS011;48016;50.284;18.860;2023-02-28T12:30:17;26.40;;;14.10;;
62056;SDS011;48016;50.284;18.860;2023-02-28T12:32:46;22.50;;;12.60;;
62056;SDS011;48016;50.284;18.860;2023-02-28T12:35:19;24.50;;;13.60;;
62056;SDS011;48016;50.284;18.860;2023-02-28T12:37:54;24.70;;;12.50;;
62056;SDS011;48016;50.284;18.860;2023-02-28T12:40:41;22.80;;;13.10;;
62056;SDS011;48016;50.284;18.860;2023-02-28T12:43:21;23.20;;;12.00;;
62056;SDS011;48016;50.284;18.860;2023-02-28T12:46:12;23.30;;;12.40;;
62056;SDS011;48016;50.284;18.860;2023-02-28T12:48:43;23.20;;;13.70;;
62056;SDS011;48016;50.284;18.860;2023-02-28T12:51:13;22.80;;;12.80;;
62056;SDS011;48016;50.284;18.860;2023-02-28T12:53:48;20.70;;;12.90;;
62056;SDS011;48016;50.284;18.860;2023-02-28T13:10:12;22.30;;;12.20;;
62056;SDS011;48016;50.284;18.860;2023-02-28T13:12:51;22.90;;;13.40;;
62056;SDS011;48016;50.284;18.860;2023-02-28T13:15:22;21.90;;;11.10;;
62056;SDS011;48016;50.284;18.860;2023-02-28T13:18:03;27.40;;;13.70;;
62056;SDS011;48016;50.284;18.860;2023-02-28T13:20:34;22.40;;;12.90;;
62056;SDS011;48016;50.284;18.860;2023-02-28T13:23:02;19.90;;;11.00;;
62056;SDS011;48016;50.284;18.860;2023-02-28T13:28:01;19.60;;;11.20;;
62056;SDS011;48016;50.284;18.860;2023-02-28T13:36:01;22.40;;;10.80;;
62056;SDS011;48016;50.284;18.860;2023-02-28T13:38:33;22.70;;;13.40;;
62056;SDS011;48016;50.284;18.860;2023-02-28T13:51:52;21.70;;;12.00;;
62056;SDS011;48016;50.284;18.860;2023-02-28T14:05:05;22.80;;;12.00;;
62056;SDS011;48016;50.284;18.860;2023-02-28T14:07:50;23.80;;;12.40;;
62056;SDS011;48016;50.284;18.860;2023-02-28T14:10:27;24.20;;;13.60;;
62056;SDS011;48016;50.284;18.860;2023-02-28T14:15:39;23.70;;;12.00;;
62056;SDS011;48016;50.284;18.860;2023-02-28T14:21:14;19.50;;;10.60;;
62056;SDS011;48016;50.284;18.860;2023-02-28T14:32:10;22.60;;;11.60;;
62056;SDS011;48016;50.284;18.860;2023-02-28T14:34:53;19.00;;;12.10;;
62056;SDS011;48016;50.284;18.860;2023-02-28T14:37:29;21.10;;;11.10;;
62056;SDS011;48016;50.284;18.860;2023-02-28T14:39:58;16.70;;;10.30;;
62056;SDS011;48016;50.284;18.860;2023-02-28T14:42:33;18.50;;;10.60;;
62056;SDS011;48016;50.284;18.860;2023-02-28T14:45:02;19.20;;;10.20;;
62056;SDS011;48016;50.284;18.860;2023-02-28T14:50:00;21.60;;;12.50;;
62056;SDS011;48016;50.284;18.860;2023-02-28T14:52:28;21.00;;;10.20;;
62056;SDS011;48016;50.284;18.860;2023-02-28T14:54:59;24.80;;;12.60;;
62056;SDS011;48016;50.284;18.860;2023-02-28T14:57:30;21.10;;;11.50;;
62056;SDS011;48016;50.284;18.860;2023-02-28T15:02:44;24.70;;;11.80;;
62056;SDS011;48016;50.284;18.860;2023-02-28T15:07:43;22.10;;;12.40;;
62056;SDS011;48016;50.284;18.860;2023-02-28T15:12:37;23.80;;;12.70;;
62056;SDS011;48016;50.284;18.860;2023-02-28T15:15:13;24.10;;;12.30;;
62056;SDS011;48016;50.284;18.860;2023-02-28T15:17:43;27.30;;;14.30;;
62056;SDS011;48016;50.284;18.860;2023-02-28T15:20:13;30.60;;;15.50;;
62056;SDS011;48016;50.284;18.860;2023-02-28T15:22:41;28.40;;;13.70;;
62056;SDS011;48016;50.284;18.860;2023-02-28T15:25:09;30.10;;;15.10;;
62056;SDS011;48016;50.284;18.860;2023-02-28T15:27:44;34.30;;;16.80;;
62056;SDS011;48016;50.284;18.860;2023-02-28T15:30:16;27.00;;;13.30;;
62056;SDS011;48016;50.284;18.860;2023-02-28T15:35:31;29.90;;;15.50;;
62056;SDS011;48016;50.284;18.860;2023-02-28T15:40:54;28.70;;;15.70;;
62056;SDS011;48016;50.284;18.860;2023-02-28T15:43:23;31.50;;;15.80;;
62056;SDS011;48016;50.284;18.860;2023-02-28T15:46:04;25.60;;;14.50;;
62056;SDS011;48016;50.284;18.860;2023-02-28T15:48:51;29.30;;;16.20;;
62056;SDS011;48016;50.284;18.860;2023-02-28T15:54:05;41.00;;;20.40;;
62056;SDS011;48016;50.284;18.860;2023-02-28T15:56:46;29.90;;;14.80;;
62056;SDS011;48016;50.284;18.860;2023-02-28T15:59:19;22.70;;;13.40;;
62056;SDS011;48016;50.284;18.860;2023-02-28T16:02:01;30.30;;;16.00;;
62056;SDS011;48016;50.284;18.860;2023-02-28T16:07:44;26.60;;;14.40;;
62056;SDS011;48016;50.284;18.860;2023-02-28T16:10:12;30.80;;;15.60;;
62056;SDS011;48016;50.284;18.860;2023-02-28T16:12:40;33.30;;;16.70;;
62056;SDS011;48016;50.284;18.860;2023-02-28T16:15:08;33.00;;;18.50;;
62056;SDS011;48016;50.284;18.860;2023-02-28T16:17:44;41.20;;;19.80;;
62056;SDS011;48016;50.284;18.860;2023-02-28T16:20:16;36.30;;;18.90;;
62056;SDS011;48016;50.284;18.860;2023-02-28T16:22:45;41.40;;;21.20;;
62056;SDS011;48016;50.284;18.860;2023-02-28T16:25:13;35.70;;;19.40;;
62056;SDS011;48016;50.284;18.860;2023-02-28T16:27:40;44.10;;;18.80;;
62056;SDS011;48016;50.284;18.860;2023-02-28T16:33:04;46.50;;;22.40;;
62056;SDS011;48016;50.284;18.860;2023-02-28T16:35:31;47.80;;;22.30;;
62056;SDS011;48016;50.284;18.860;2023-02-28T16:37:57;51.20;;;25.80;;
62056;SDS011;48016;50.284;18.860;2023-02-28T16:40:25;52.40;;;27.30;;
62056;SDS011;48016;50.284;18.860;2023-02-28T16:42:55;56.40;;;27.30;;
62056;SDS011;48016;50.284;18.860;2023-02-28T16:45:26;58.10;;;28.00;;
62056;SDS011;48016;50.284;18.860;2023-02-28T16:47:55;58.10;;;27.60;;
62056;SDS011;48016;50.284;18.860;2023-02-28T16:52:56;45.70;;;21.10;;
62056;SDS011;48016;50.284;18.860;2023-02-28T16:55:23;46.40;;;21.60;;
62056;SDS011;48016;50.284;18.860;2023-02-28T16:57:52;52.80;;;26.40;;
62056;SDS011;48016;50.284;18.860;2023-02-28T17:00:20;64.00;;;28.60;;
62056;SDS011;48016;50.284;18.860;2023-02-28T17:02:48;58.70;;;27.60;;
62056;SDS011;48016;50.284;18.860;2023-02-28T17:05:15;53.60;;;27.00;;
62056;SDS011;48016;50.284;18.860;2023-02-28T17:07:42;53.10;;;24.30;;
62056;SDS011;48016;50.284;18.860;2023-02-28T17:12:49;57.30;;;27.50;;
62056;SDS011;48016;50.284;18.860;2023-02-28T17:15:17;54.10;;;27.20;;
62056;SDS011;48016;50.284;18.860;2023-02-28T17:17:45;45.20;;;23.40;;
62056;SDS011;48016;50.284;18.860;2023-02-28T17:20:19;47.80;;;23.90;;
62056;SDS011;48016;50.284;18.860;2023-02-28T17:22:51;44.00;;;22.30;;
62056;SDS011;48016;50.284;18.860;2023-02-28T17:25:17;48.40;;;22.50;;